sensor_id;sensor_type;location;lat;lon;timestamp;temperature;humidity
9965;DHT22;5023;53.554;9.964;2023-09-19T00:02:54;17.50;99.90
9965;DHT22;5023;53.554;9.964;2023-09-19T00:07:59;17.60;99.90
9965;DHT22;5023;53.554;9.964;2023-09-19T00:13:03;17.50;99.90
9965;DHT22;5023;53.554;9.964;2023-09-19T00:18:08;17.60;99.90
9965;DHT22;5023;53.554;9.964;2023-09-19T00:23:10;17.50;99.90
9965;DHT22;5023;53.554;9.964;2023-09-19T00:28:13;17.50;99.90
9965;DHT22;5023;53.554;9.964;2023-09-19T00:33:17;17.50;99.90
9965;DHT22;5023;53.554;9.964;2023-09-19T00:38:19;17.50;99.90
9965;DHT22;5023;53.554;9.964;2023-09-19T00:43:24;17.50;99.90
9965;DHT22;5023;53.554;9.964;2023-09-19T00:48:27;17.50;99.90
9965;DHT22;5023;53.554;9.964;2023-09-19T00:53:31;17.50;99.90
9965;DHT22;5023;53.554;9.964;2023-09-19T00:58:36;17.50;99.90
9965;DHT22;5023;53.554;9.964;2023-09-19T01:03:39;17.50;99.90
9965;DHT22;5023;53.554;9.964;2023-09-19T01:08:41;17.50;99.90
9965;DHT22;5023;53.554;9.964;2023-09-19T01:13:51;17.60;99.90
9965;DHT22;5023;53.554;9.964;2023-09-19T01:19:05;17.50;99.90
9965;DHT22;5023;53.554;9.964;2023-09-19T01:24:22;17.50;99.90
9965;DHT22;5023;53.554;9.964;2023-09-19T01:29:39;17.50;99.90
9965;DHT22;5023;53.554;9.964;2023-09-19T01:34:46;17.50;99.90
9965;DHT22;5023;53.554;9.964;2023-09-19T01:39:52;17.40;99.90
9965;DHT22;5023;53.554;9.964;2023-09-19T01:44:59;17.40;99.90
9965;DHT22;5023;53.554;9.964;2023-09-19T01:50:13;17.40;99.90
9965;DHT22;5023;53.554;9.964;2023-09-19T01:55:21;17.40;99.90
9965;DHT22;5023;53.554;9.964;2023-09-19T02:00:23;17.40;99.90
9965;DHT22;5023;53.554;9.964;2023-09-19T02:05:27;17.30;99.90
9965;DHT22;5023;53.554;9.964;2023-09-19T02:10:29;17.30;99.90
9965;DHT22;5023;53.554;9.964;2023-09-19T02:15:31;17.30;99.90
9965;DHT22;5023;53.554;9.964;2023-09-19T02:20:37;17.20;99.90
9965;DHT22;5023;53.554;9.964;2023-09-19T02:25:41;17.20;99.90
9965;DHT22;5023;53.554;9.964;2023-09-19T02:30:47;17.10;99.90
9965;DHT22;5023;53.554;9.964;2023-09-19T02:35:54;17.10;99.90
9965;DHT22;5023;53.554;9.964;2023-09-19T02:40:58;17.10;99.90
9965;DHT22;5023;53.554;9.964;2023-09-19T02:46:00;17.00;99.90
9965;DHT22;5023;53.554;9.964;2023-09-19T02:51:04;17.00;99.90
9965;DHT22;5023;53.554;9.964;2023-09-19T02:56:07;17.00;99.90
9965;DHT22;5023;53.554;9.964;2023-09-19T03:01:10;16.90;99.90
9965;DHT22;5023;53.554;9.964;2023-09-19T03:06:14;16.90;99.90
9965;DHT22;5023;53.554;9.964;2023-09-19T03:11:17;16.90;99.90
9965;DHT22;5023;53.554;9.964;2023-09-19T03:16:22;16.90;99.90
9965;DHT22;5023;53.554;9.964;2023-09-19T03:21:25;16.80;99.90
9965;DHT22;5023;53.554;9.964;2023-09-19T03:26:27;16.80;99.90
9965;DHT22;5023;53.554;9.964;2023-09-19T03:31:29;16.80;99.90
9965;DHT22;5023;53.554;9.964;2023-09-19T03:36:35;16.90;99.90
9965;DHT22;5023;53.554;9.964;2023-09-19T03:41:37;16.90;99.90
9965;DHT22;5023;53.554;9.964;2023-09-19T03:46:39;16.80;99.90
9965;DHT22;5023;53.554;9.964;2023-09-19T03:51:42;16.80;99.90
9965;DHT22;5023;53.554;9.964;2023-09-19T03:56:44;16.70;99.90
9965;DHT22;5023;53.554;9.964;2023-09-19T04:01:46;16.60;99.90
9965;DHT22;5023;53.554;9.964;2023-09-19T04:06:49;16.50;99.90
9965;DHT22;5023;53.554;9.964;2023-09-19T04:11:51;16.40;99.90
9965;DHT22;5023;53.554;9.964;2023-09-19T04:16:53;16.20;99.90
9965;DHT22;5023;53.554;9.964;2023-09-19T04:21:56;16.20;99.90
9965;DHT22;5023;53.554;9.964;2023-09-19T04:26:58;16.10;99.90
9965;DHT22;5023;53.554;9.964;2023-09-19T04:32:00;16.00;99.90
9965;DHT22;5023;53.554;9.964;2023-09-19T04:37:06;15.90;99.90
9965;DHT22;5023;53.554;9.964;2023-09-19T04:42:08;15.80;99.90
9965;DHT22;5023;53.554;9.964;2023-09-19T04:47:12;15.80;99.90
9965;DHT22;5023;53.554;9.964;2023-09-19T04:52:15;15.80;99.90
9965;DHT22;5023;53.554;9.964;2023-09-19T04:57:17;15.80;99.90
9965;DHT22;5023;53.554;9.964;2023-09-19T05:02:19;15.70;99.90
9965;DHT22;5023;53.554;9.964;2023-09-19T05:07:22;15.70;99.90
9965;DHT22;5023;53.554;9.964;2023-09-19T05:12:26;15.70;99.90
9965;DHT22;5023;53.554;9.964;2023-09-19T05:17:29;15.60;99.90
9965;DHT22;5023;53.554;9.964;2023-09-19T05:22:33;15.60;99.90
9965;DHT22;5023;53.554;9.964;2023-09-19T05:27:34;15.60;99.90
9965;DHT22;5023;53.554;9.964;2023-09-19T05:32:36;15.50;99.90
9965;DHT22;5023;53.554;9.964;2023-09-19T05:37:40;15.50;99.90
9965;DHT22;5023;53.554;9.964;2023-09-19T05:42:42;15.50;99.90
9965;DHT22;5023;53.554;9.964;2023-09-19T05:47:45;15.50;99.90
9965;DHT22;5023;53.554;9.964;2023-09-19T05:52:53;15.50;99.90
9965;DHT22;5023;53.554;9.964;2023-09-19T05:57:56;15.60;99.90
9965;DHT22;5023;53.554;9.964;2023-09-19T06:02:59;15.60;99.90
9965;DHT22;5023;53.554;9.964;2023-09-19T06:08:03;15.60;99.90
9965;DHT22;5023;53.554;9.964;2023-09-19T06:13:08;15.70;99.90
9965;DHT22;5023;53.554;9.964;2023-09-19T06:18:11;15.70;99.90
9965;DHT22;5023;53.554;9.964;2023-09-19T06:23:17;15.80;99.90
9965;DHT22;5023;53.554;9.964;2023-09-19T06:28:20;15.90;99.90
9965;DHT22;5023;53.554;9.964;2023-09-19T06:33:25;15.90;99.90
9965;DHT22;5023;53.554;9.964;2023-09-19T06:38:28;15.90;99.90
9965;DHT22;5023;53.554;9.964;2023-09-19T06:43:30;16.00;99.90
9965;DHT22;5023;53.554;9.964;2023-09-19T06:48:34;16.00;99.90
9965;DHT22;5023;53.554;9.964;2023-09-19T06:53:37;16.10;99.90
9965;DHT22;5023;53.554;9.964;2023-09-19T06:58:40;16.20;99.90
9965;DHT22;5023;53.554;9.964;2023-09-19T07:03:44;16.20;99.90
9965;DHT22;5023;53.554;9.964;2023-09-19T07:08:48;16.20;99.90
9965;DHT22;5023;53.554;9.964;2023-09-19T07:13:50;16.30;99.90
9965;DHT22;5023;53.554;9.964;2023-09-19T07:18:52;16.40;99.90
9965;DHT22;5023;53.554;9.964;2023-09-19T07:23:57;16.30;99.90
9965;DHT22;5023;53.554;9.964;2023-09-19T07:28:59;16.40;99.90
9965;DHT22;5023;53.554;9.964;2023-09-19T07:34:02;16.50;99.90
9965;DHT22;5023;53.554;9.964;2023-09-19T07:39:07;16.50;99.90
9965;DHT22;5023;53.554;9.964;2023-09-19T07:44:09;16.50;99.90
9965;DHT22;5023;53.554;9.964;2023-09-19T07:49:11;16.60;99.90
9965;DHT22;5023;53.554;9.964;2023-09-19T07:54:14;16.50;99.90
9965;DHT22;5023;53.554;9.964;2023-09-19T07:59:17;16.50;99.90
9965;DHT22;5023;53.554;9.964;2023-09-19T08:04:19;16.30;99.90
9965;DHT22;5023;53.554;9.964;2023-09-19T08:09:22;16.10;99.90
9965;DHT22;5023;53.554;9.964;2023-09-19T08:14:24;16.00;99.90
9965;DHT22;5023;53.554;9.964;2023-09-19T08:19:26;15.90;99.90
9965;DHT22;5023;53.554;9.964;2023-09-19T08:24:33;15.90;99.90
9965;DHT22;5023;53.554;9.964;2023-09-19T08:29:35;16.00;99.90
9965;DHT22;5023;53.554;9.964;2023-09-19T08:34:37;16.10;99.90
9965;DHT22;5023;53.554;9.964;2023-09-19T08:39:40;16.20;99.90
9965;DHT22;5023;53.554;9.964;2023-09-19T08:44:43;16.30;99.90
9965;DHT22;5023;53.554;9.964;2023-09-19T08:49:51;16.30;99.90
9965;DHT22;5023;53.554;9.964;2023-09-19T08:54:59;16.40;99.90
9965;DHT22;5023;53.554;9.964;2023-09-19T09:00:05;16.50;99.90
9965;DHT22;5023;53.554;9.964;2023-09-19T09:05:10;16.60;99.90
9965;DHT22;5023;53.554;9.964;2023-09-19T09:10:15;16.70;99.90
9965;DHT22;5023;53.554;9.964;2023-09-19T09:15:19;16.80;99.90
9965;DHT22;5023;53.554;9.964;2023-09-19T09:20:23;16.90;99.90
9965;DHT22;5023;53.554;9.964;2023-09-19T09:25:46;16.90;99.90
9965;DHT22;5023;53.554;9.964;2023-09-19T09:30:49;17.00;99.90
9965;DHT22;5023;53.554;9.964;2023-09-19T09:35:53;17.00;99.90
9965;DHT22;5023;53.554;9.964;2023-09-19T09:40:59;17.10;99.90
9965;DHT22;5023;53.554;9.964;2023-09-19T09:46:14;17.20;99.90
9965;DHT22;5023;53.554;9.964;2023-09-19T09:51:33;17.30;99.90
9965;DHT22;5023;53.554;9.964;2023-09-19T09:56:52;17.50;99.90
9965;DHT22;5023;53.554;9.964;2023-09-19T10:01:54;17.70;99.90
9965;DHT22;5023;53.554;9.964;2023-09-19T10:06:57;17.80;99.90
9965;DHT22;5023;53.554;9.964;2023-09-19T10:12:07;17.80;99.90
9965;DHT22;5023;53.554;9.964;2023-09-19T10:17:10;17.90;99.90
9965;DHT22;5023;53.554;9.964;2023-09-19T10:22:16;18.00;99.90
9965;DHT22;5023;53.554;9.964;2023-09-19T10:27:23;18.30;99.90
9965;DHT22;5023;53.554;9.964;2023-09-19T10:32:28;18.40;99.90
9965;DHT22;5023;53.554;9.964;2023-09-19T10:37:34;18.50;99.90
9965;DHT22;5023;53.554;9.964;2023-09-19T10:42:40;18.50;99.90
9965;DHT22;5023;53.554;9.964;2023-09-19T10:47:44;18.50;99.90
9965;DHT22;5023;53.554;9.964;2023-09-19T10:52:48;18.60;99.90
9965;DHT22;5023;53.554;9.964;2023-09-19T10:57:52;18.50;99.90
9965;DHT22;5023;53.554;9.964;2023-09-19T11:03:16;18.50;99.90
9965;DHT22;5023;53.554;9.964;2023-09-19T11:08:19;18.50;99.90
9965;DHT22;5023;53.554;9.964;2023-09-19T11:13:25;18.60;99.90
9965;DHT22;5023;53.554;9.964;2023-09-19T11:18:56;18.60;99.90
9965;DHT22;5023;53.554;9.964;2023-09-19T11:24:27;18.60;99.90
9965;DHT22;5023;53.554;9.964;2023-09-19T11:29:33;18.80;99.90
9965;DHT22;5023;53.554;9.964;2023-09-19T11:34:42;18.80;99.90
9965;DHT22;5023;53.554;9.964;2023-09-19T11:40:05;18.90;99.90
9965;DHT22;5023;53.554;9.964;2023-09-19T11:46:02;18.90;99.90
9965;DHT22;5023;53.554;9.964;2023-09-19T11:51:12;19.00;99.90
9965;DHT22;5023;53.554;9.964;2023-09-19T11:56:21;19.00;99.90
9965;DHT22;5023;53.554;9.964;2023-09-19T12:01:29;19.00;99.90
9965;DHT22;5023;53.554;9.964;2023-09-19T12:06:32;19.10;99.90
9965;DHT22;5023;53.554;9.964;2023-09-19T12:11:41;19.20;99.90
9965;DHT22;5023;53.554;9.964;2023-09-19T12:16:51;19.10;99.90
9965;DHT22;5023;53.554;9.964;2023-09-19T12:22:00;19.10;99.90
9965;DHT22;5023;53.554;9.964;2023-09-19T12:27:06;19.10;99.90
9965;DHT22;5023;53.554;9.964;2023-09-19T12:32:09;19.10;99.90
9965;DHT22;5023;53.554;9.964;2023-09-19T12:37:13;19.30;99.90
9965;DHT22;5023;53.554;9.964;2023-09-19T12:42:22;19.20;99.90
9965;DHT22;5023;53.554;9.964;2023-09-19T12:47:26;19.30;99.90
9965;DHT22;5023;53.554;9.964;2023-09-19T12:52:35;19.50;99.90
9965;DHT22;5023;53.554;9.964;2023-09-19T12:57:38;19.50;99.90
9965;DHT22;5023;53.554;9.964;2023-09-19T13:03:15;19.50;99.90
9965;DHT22;5023;53.554;9.964;2023-09-19T13:08:21;19.60;99.90
9965;DHT22;5023;53.554;9.964;2023-09-19T13:13:23;19.70;99.90
9965;DHT22;5023;53.554;9.964;2023-09-19T13:18:30;19.80;99.90
9965;DHT22;5023;53.554;9.964;2023-09-19T13:23:34;19.90;99.90
9965;DHT22;5023;53.554;9.964;2023-09-19T13:28:38;20.10;99.90
9965;DHT22;5023;53.554;9.964;2023-09-19T13:33:44;20.00;99.90
9965;DHT22;5023;53.554;9.964;2023-09-19T13:38:47;20.10;99.90
9965;DHT22;5023;53.554;9.964;2023-09-19T13:43:50;20.10;99.90
9965;DHT22;5023;53.554;9.964;2023-09-19T13:48:53;20.20;99.90
9965;DHT22;5023;53.554;9.964;2023-09-19T13:53:55;20.60;99.90
9965;DHT22;5023;53.554;9.964;2023-09-19T13:58:57;20.80;99.90
9965;DHT22;5023;53.554;9.964;2023-09-19T14:04:00;20.90;99.90
9965;DHT22;5023;53.554;9.964;2023-09-19T14:09:03;20.80;99.90
9965;DHT22;5023;53.554;9.964;2023-09-19T14:14:05;20.60;99.90
9965;DHT22;5023;53.554;9.964;2023-09-19T14:19:08;20.50;99.90
9965;DHT22;5023;53.554;9.964;2023-09-19T14:24:10;20.60;99.90
9965;DHT22;5023;53.554;9.964;2023-09-19T14:29:13;20.50;99.90
9965;DHT22;5023;53.554;9.964;2023-09-19T14:34:16;20.50;99.90
9965;DHT22;5023;53.554;9.964;2023-09-19T14:39:18;20.50;99.90
9965;DHT22;5023;53.554;9.964;2023-09-19T14:44:20;20.50;99.90
9965;DHT22;5023;53.554;9.964;2023-09-19T14:49:24;20.40;99.90
9965;DHT22;5023;53.554;9.964;2023-09-19T14:54:26;20.40;99.90
9965;DHT22;5023;53.554;9.964;2023-09-19T14:59:30;20.30;99.90
9965;DHT22;5023;53.554;9.964;2023-09-19T15:04:33;20.20;99.90
9965;DHT22;5023;53.554;9.964;2023-09-19T15:09:35;20.20;99.90
9965;DHT22;5023;53.554;9.964;2023-09-19T15:14:37;20.10;99.90
9965;DHT22;5023;53.554;9.964;2023-09-19T15:19:40;20.00;99.90
9965;DHT22;5023;53.554;9.964;2023-09-19T15:24:42;19.90;99.90
9965;DHT22;5023;53.554;9.964;2023-09-19T15:29:44;19.90;99.90
9965;DHT22;5023;53.554;9.964;2023-09-19T15:34:48;19.80;99.90
9965;DHT22;5023;53.554;9.964;2023-09-19T15:39:50;19.80;99.90
9965;DHT22;5023;53.554;9.964;2023-09-19T15:44:52;19.80;99.90
9965;DHT22;5023;53.554;9.964;2023-09-19T15:49:57;19.70;99.90
9965;DHT22;5023;53.554;9.964;2023-09-19T15:54:58;19.70;99.90
9965;DHT22;5023;53.554;9.964;2023-09-19T16:00:00;19.70;99.90
9965;DHT22;5023;53.554;9.964;2023-09-19T16:05:07;19.70;99.90
9965;DHT22;5023;53.554;9.964;2023-09-19T16:10:09;19.60;99.90
9965;DHT22;5023;53.554;9.964;2023-09-19T16:15:11;19.50;99.90
9965;DHT22;5023;53.554;9.964;2023-09-19T16:20:16;19.50;99.90
9965;DHT22;5023;53.554;9.964;2023-09-19T16:25:18;19.50;99.90
9965;DHT22;5023;53.554;9.964;2023-09-19T16:30:20;19.50;99.90
9965;DHT22;5023;53.554;9.964;2023-09-19T16:35:23;19.50;99.90
9965;DHT22;5023;53.554;9.964;2023-09-19T16:40:25;19.50;99.90
9965;DHT22;5023;53.554;9.964;2023-09-19T16:45:27;19.40;99.90
9965;DHT22;5023;53.554;9.964;2023-09-19T16:50:31;19.30;99.90
9965;DHT22;5023;53.554;9.964;2023-09-19T16:55:36;19.30;99.90
9965;DHT22;5023;53.554;9.964;2023-09-19T17:00:39;19.30;99.90
9965;DHT22;5023;53.554;9.964;2023-09-19T17:05:42;19.30;99.90
9965;DHT22;5023;53.554;9.964;2023-09-19T17:10:45;19.30;99.90
9965;DHT22;5023;53.554;9.964;2023-09-19T17:15:47;19.30;99.90
9965;DHT22;5023;53.554;9.964;2023-09-19T17:20:50;19.30;99.90
9965;DHT22;5023;53.554;9.964;2023-09-19T17:26:00;19.30;99.90
9965;DHT22;5023;53.554;9.964;2023-09-19T17:31:08;19.40;99.90
9965;DHT22;5023;53.554;9.964;2023-09-19T17:36:13;19.30;99.90
9965;DHT22;5023;53.554;9.964;2023-09-19T17:41:15;19.30;99.90
9965;DHT22;5023;53.554;9.964;2023-09-19T17:46:17;19.30;99.90
9965;DHT22;5023;53.554;9.964;2023-09-19T17:51:21;19.30;99.90
9965;DHT22;5023;53.554;9.964;2023-09-19T17:56:23;19.30;99.90
9965;DHT22;5023;53.554;9.964;2023-09-19T18:01:26;19.30;99.90
9965;DHT22;5023;53.554;9.964;2023-09-19T18:06:31;19.20;99.90
9965;DHT22;5023;53.554;9.964;2023-09-19T18:11:33;19.30;99.90
9965;DHT22;5023;53.554;9.964;2023-09-19T18:16:35;19.30;99.90
9965;DHT22;5023;53.554;9.964;2023-09-19T18:21:39;19.20;99.90
9965;DHT22;5023;53.554;9.964;2023-09-19T18:26:46;19.30;99.90
9965;DHT22;5023;53.554;9.964;2023-09-19T18:31:48;19.20;99.90
9965;DHT22;5023;53.554;9.964;2023-09-19T18:36:51;19.30;99.90
9965;DHT22;5023;53.554;9.964;2023-09-19T18:41:55;19.20;99.90
9965;DHT22;5023;53.554;9.964;2023-09-19T18:46:57;19.30;99.90
9965;DHT22;5023;53.554;9.964;2023-09-19T18:52:00;19.20;99.90
9965;DHT22;5023;53.554;9.964;2023-09-19T18:57:02;19.20;99.90
9965;DHT22;5023;53.554;9.964;2023-09-19T19:02:05;19.20;99.90
9965;DHT22;5023;53.554;9.964;2023-09-19T19:07:08;19.20;99.90
9965;DHT22;5023;53.554;9.964;2023-09-19T19:12:16;19.20;99.90
9965;DHT22;5023;53.554;9.964;2023-09-19T19:17:18;19.20;99.90
9965;DHT22;5023;53.554;9.964;2023-09-19T19:22:23;19.20;99.90
9965;DHT22;5023;53.554;9.964;2023-09-19T19:27:25;19.10;99.90
9965;DHT22;5023;53.554;9.964;2023-09-19T19:32:27;19.10;99.90
9965;DHT22;5023;53.554;9.964;2023-09-19T19:37:30;19.10;99.90
9965;DHT22;5023;53.554;9.964;2023-09-19T19:42:32;19.10;99.90
9965;DHT22;5023;53.554;9.964;2023-09-19T19:47:34;19.10;99.90
9965;DHT22;5023;53.554;9.964;2023-09-19T19:52:37;19.10;99.90
9965;DHT22;5023;53.554;9.964;2023-09-19T19:57:39;19.00;99.90
9965;DHT22;5023;53.554;9.964;2023-09-19T20:02:43;19.00;99.90
9965;DHT22;5023;53.554;9.964;2023-09-19T20:07:47;19.00;99.90
9965;DHT22;5023;53.554;9.964;2023-09-19T20:12:49;19.00;99.90
9965;DHT22;5023;53.554;9.964;2023-09-19T20:17:52;19.00;99.90
9965;DHT22;5023;53.554;9.964;2023-09-19T20:23:01;19.00;99.90
9965;DHT22;5023;53.554;9.964;2023-09-19T20:28:05;19.00;99.90
9965;DHT22;5023;53.554;9.964;2023-09-19T20:33:07;18.90;99.90
9965;DHT22;5023;53.554;9.964;2023-09-19T20:38:13;19.00;99.90
9965;DHT22;5023;53.554;9.964;2023-09-19T20:43:15;18.90;99.90
9965;DHT22;5023;53.554;9.964;2023-09-19T20:48:17;18.90;99.90
9965;DHT22;5023;53.554;9.964;2023-09-19T20:53:20;18.80;99.90
9965;DHT22;5023;53.554;9.964;2023-09-19T20:58:22;18.80;99.90
9965;DHT22;5023;53.554;9.964;2023-09-19T21:03:24;18.80;99.90
9965;DHT22;5023;53.554;9.964;2023-09-19T21:08:27;18.60;99.90
9965;DHT22;5023;53.554;9.964;2023-09-19T21:13:29;18.60;99.90
9965;DHT22;5023;53.554;9.964;2023-09-19T21:18:31;18.60;99.90
9965;DHT22;5023;53.554;9.964;2023-09-19T21:23:34;18.60;99.90
9965;DHT22;5023;53.554;9.964;2023-09-19T21:28:37;18.50;99.90
9965;DHT22;5023;53.554;9.964;2023-09-19T21:33:40;18.50;99.90
9965;DHT22;5023;53.554;9.964;2023-09-19T21:38:44;18.60;99.90
9965;DHT22;5023;53.554;9.964;2023-09-19T21:43:47;18.60;99.90
9965;DHT22;5023;53.554;9.964;2023-09-19T21:48:51;18.60;99.90
9965;DHT22;5023;53.554;9.964;2023-09-19T21:53:56;18.40;99.90
9965;DHT22;5023;53.554;9.964;2023-09-19T21:58:58;18.20;99.90
9965;DHT22;5023;53.554;9.964;2023-09-19T22:04:00;18.20;99.90
9965;DHT22;5023;53.554;9.964;2023-09-19T22:09:04;18.10;99.90
9965;DHT22;5023;53.554;9.964;2023-09-19T22:14:06;18.00;99.90
9965;DHT22;5023;53.554;9.964;2023-09-19T22:19:08;18.00;99.90
9965;DHT22;5023;53.554;9.964;2023-09-19T22:24:12;18.00;99.90
9965;DHT22;5023;53.554;9.964;2023-09-19T22:29:16;17.90;99.90
9965;DHT22;5023;53.554;9.964;2023-09-19T22:34:18;17.80;99.90
9965;DHT22;5023;53.554;9.964;2023-09-19T22:39:21;17.70;99.90
9965;DHT22;5023;53.554;9.964;2023-09-19T22:44:25;17.60;99.90
9965;DHT22;5023;53.554;9.964;2023-09-19T22:49:28;17.60;99.90
9965;DHT22;5023;53.554;9.964;2023-09-19T22:54:31;17.50;99.90
9965;DHT22;5023;53.554;9.964;2023-09-19T22:59:36;17.50;99.90
9965;DHT22;5023;53.554;9.964;2023-09-19T23:04:39;17.40;99.90
9965;DHT22;5023;53.554;9.964;2023-09-19T23:09:44;17.50;99.90
9965;DHT22;5023;53.554;9.964;2023-09-19T23:14:47;17.40;99.90
9965;DHT22;5023;53.554;9.964;2023-09-19T23:19:49;17.50;99.90
9965;DHT22;5023;53.554;9.964;2023-09-19T23:24:57;17.50;99.90
9965;DHT22;5023;53.554;9.964;2023-09-19T23:30:13;17.50;99.90
9965;DHT22;5023;53.554;9.964;2023-09-19T23:35:19;17.50;99.90
9965;DHT22;5023;53.554;9.964;2023-09-19T23:40:24;17.50;99.90
9965;DHT22;5023;53.554;9.964;2023-09-19T23:45:29;17.60;99.90
9965;DHT22;5023;53.554;9.964;2023-09-19T23:50:30;17.60;99.90
9965;DHT22;5023;53.554;9.964;2023-09-19T23:55:36;17.70;99.90
